createdAt,value
2022-08-05T00:00:18.491Z,98267.94
2022-08-05T00:02:51.512Z,98260.19
2022-08-05T00:05:27.484Z,98260.56
2022-08-05T00:08:32.603Z,98271.03
2022-08-05T00:11:00.881Z,98287.09
2022-08-05T00:13:39.608Z,98284.91
2022-08-05T00:16:12.661Z,98275.22
2022-08-05T00:18:42.326Z,98276.03
2022-08-05T00:21:10.935Z,98274.97
2022-08-05T00:23:46.251Z,98287.19
2022-08-05T00:26:22.043Z,98288.25
2022-08-05T00:28:51.841Z,98288.25
2022-08-05T00:31:54.085Z,98289.97
2022-08-05T00:34:53.951Z,98296.69
2022-08-05T00:37:12.782Z,98308.72
2022-08-05T00:39:44.187Z,98309.19
2022-08-05T00:42:32.913Z,98315.28
2022-08-05T00:45:02.697Z,98322.63
2022-08-05T00:47:30.492Z,98318.56
2022-08-05T00:50:18.599Z,98326.28
2022-08-05T00:52:48.843Z,98324.00
2022-08-05T00:55:16.591Z,98326.00
2022-08-05T00:57:58.488Z,98324.63
2022-08-05T01:00:28.971Z,98323.09
2022-08-05T01:02:59.757Z,98323.34
2022-08-05T01:05:28.191Z,98329.63
2022-08-05T01:08:41.930Z,98327.41
2022-08-05T01:10:51.645Z,98333.44
2022-08-05T01:13:27.394Z,98344.63
2022-08-05T01:16:26.529Z,98350.06
2022-08-05T01:19:00.878Z,98342.88
2022-08-05T01:22:18.695Z,98352.34
2022-08-05T01:25:04.631Z,98355.50
2022-08-05T01:28:03.782Z,98362.41
2022-08-05T01:30:37.526Z,98365.22
2022-08-05T01:33:08.385Z,98365.59
2022-08-05T01:35:52.147Z,98375.56
2022-08-05T01:38:27.229Z,98385.19
2022-08-05T01:40:59.710Z,98388.38
2022-08-05T01:43:29.635Z,98389.50
2022-08-05T01:46:07.493Z,98389.81
2022-08-05T01:48:49.548Z,98388.19
2022-08-05T01:51:19.904Z,98391.00
2022-08-05T01:53:57.361Z,98380.97
2022-08-05T01:58:13.576Z,98379.59
2022-08-05T01:59:24.082Z,98369.84
2022-08-05T02:01:57.724Z,98371.59
2022-08-05T02:04:29.936Z,98359.97
2022-08-05T02:06:59.808Z,98364.34
2022-08-05T02:09:31.633Z,98363.16
2022-08-05T02:12:06.722Z,98365.72
2022-08-05T02:14:47.092Z,98387.22
2022-08-05T02:18:28.423Z,98389.44
2022-08-05T02:20:21.241Z,98381.75
2022-08-05T02:22:57.959Z,98383.59
2022-08-05T02:25:33.049Z,98368.66
2022-08-05T02:28:04.310Z,98382.19
2022-08-05T02:30:42.676Z,98379.50
2022-08-05T02:33:24.629Z,98379.34
2022-08-05T02:36:04.575Z,98390.03
2022-08-05T02:38:35.192Z,98388.00
2022-08-05T02:41:14.732Z,98391.44
2022-08-05T02:44:02.774Z,98387.31
2022-08-05T02:46:53.198Z,98395.00
2022-08-05T02:49:26.722Z,98407.84
2022-08-05T02:52:02.840Z,98399.59
2022-08-05T02:54:36.483Z,98403.00
2022-08-05T02:57:10.365Z,98425.22
2022-08-05T02:59:56.143Z,98430.25
2022-08-05T03:02:32.727Z,98430.06
2022-08-05T03:05:02.148Z,98423.03
2022-08-05T03:08:00.157Z,98429.09
2022-08-05T03:10:24.571Z,98433.19
2022-08-05T03:12:54.010Z,98430.50
2022-08-05T03:15:23.722Z,98420.03
2022-08-05T03:17:55.962Z,98418.47
2022-08-05T03:20:25.622Z,98402.41
2022-08-05T03:22:57.102Z,98398.75
2022-08-05T03:25:32.711Z,98404.06
2022-08-05T03:28:13.979Z,98402.03
2022-08-05T03:30:42.523Z,98413.28
2022-08-05T03:33:12.123Z,98416.13
2022-08-05T03:35:41.829Z,98413.94
2022-08-05T03:38:12.162Z,98423.94
2022-08-05T03:40:41.733Z,98404.53
2022-08-05T03:43:58.307Z,98398.44
2022-08-05T03:46:01.705Z,98399.97
2022-08-05T03:48:35.130Z,98407.53
2022-08-05T03:52:49.112Z,98407.44
2022-08-05T03:55:52.077Z,98398.88
2022-08-05T03:56:58.844Z,98389.09
2022-08-05T03:59:46.753Z,98394.88
2022-08-05T04:02:38.744Z,98396.56
2022-08-05T04:05:10.341Z,98383.47
2022-08-05T04:07:57.287Z,98396.19
2022-08-05T04:10:37.629Z,98417.63
2022-08-05T04:13:07.448Z,98423.97
2022-08-05T04:15:36.555Z,98432.25
2022-08-05T04:18:07.042Z,98451.47
2022-08-05T04:20:37.221Z,98479.78
2022-08-05T04:23:05.324Z,98495.31
2022-08-05T04:25:56.789Z,98500.88
2022-08-05T04:28:30.610Z,98512.00
2022-08-05T04:31:00.821Z,98511.16
2022-08-05T04:33:54.676Z,98516.59
2022-08-05T04:36:45.319Z,98531.69
2022-08-05T04:39:07.812Z,98531.34
2022-08-05T04:41:37.262Z,98549.44
2022-08-05T04:44:09.559Z,98556.38
2022-08-05T04:46:38.572Z,98570.38
2022-08-05T04:49:14.852Z,98565.56
2022-08-05T04:51:45.042Z,98575.88
2022-08-05T04:54:14.631Z,98569.13
2022-08-05T04:56:43.604Z,98575.28
2022-08-05T04:59:22.315Z,98584.66
2022-08-05T05:02:08.197Z,98618.34
2022-08-05T05:04:43.906Z,98638.56
2022-08-05T05:07:17.312Z,98641.81
2022-08-05T05:09:45.214Z,98649.56
2022-08-05T05:12:13.006Z,98661.13
2022-08-05T05:14:50.662Z,98663.25
2022-08-05T05:17:23.953Z,98662.47
2022-08-05T05:19:56.646Z,98656.06
2022-08-05T05:22:26.894Z,98663.44
2022-08-05T05:25:00.311Z,98665.72
2022-08-05T05:27:44.434Z,98658.09
2022-08-05T05:30:31.542Z,98667.59
2022-08-05T05:33:03.802Z,98665.09
2022-08-05T05:35:45.245Z,98670.47
2022-08-05T05:38:15.038Z,98659.03
2022-08-05T05:40:51.843Z,98674.53
2022-08-05T05:43:21.790Z,98678.94
2022-08-05T05:45:56.033Z,98671.91
2022-08-05T05:48:27.483Z,98675.94
2022-08-05T05:50:55.513Z,98679.84
2022-08-05T05:53:24.792Z,98695.06
2022-08-05T05:56:01.217Z,98703.75
2022-08-05T05:58:32.289Z,98697.47
2022-08-05T06:01:02.405Z,98694.34
2022-08-05T06:04:01.894Z,98694.63
2022-08-05T06:06:33.009Z,98693.91
2022-08-05T06:09:04.826Z,98692.53
2022-08-05T06:11:32.781Z,98691.06
2022-08-05T06:14:00.981Z,98692.34
2022-08-05T06:16:32.744Z,98673.09
2022-08-05T06:19:07.442Z,98658.13
2022-08-05T06:21:38.794Z,98664.38
2022-08-05T06:24:12.847Z,98655.03
2022-08-05T06:26:51.127Z,98667.47
2022-08-05T06:29:42.878Z,98661.53
2022-08-05T06:32:20.886Z,98665.75
2022-08-05T06:34:56.107Z,98671.09
2022-08-05T06:37:56.137Z,98673.28
2022-08-05T06:40:20.901Z,98685.63
2022-08-05T06:42:52.139Z,98693.13
2022-08-05T06:45:44.981Z,98695.63
2022-08-05T06:48:36.384Z,98695.03
2022-08-05T06:50:58.001Z,98701.41
2022-08-05T06:53:28.212Z,98691.47
2022-08-05T06:55:59.221Z,98698.97
2022-08-05T06:58:29.645Z,98697.69
2022-08-05T07:01:03.504Z,98696.31
2022-08-05T07:03:33.211Z,98700.84
2022-08-05T07:06:05.457Z,98703.06
2022-08-05T07:08:34.194Z,98700.41
2022-08-05T07:11:04.840Z,98699.25
2022-08-05T07:13:59.344Z,98701.03
2022-08-05T07:18:08.486Z,98709.75
2022-08-05T07:22:27.901Z,98724.88
2022-08-05T07:24:58.651Z,98726.41
2022-08-05T07:27:58.693Z,98732.31
2022-08-05T07:30:25.483Z,98741.28
2022-08-05T07:32:56.201Z,98731.41
2022-08-05T07:35:56.037Z,98736.06
2022-08-05T07:38:32.850Z,98745.00
2022-08-05T07:41:17.197Z,98747.09
2022-08-05T07:43:51.305Z,98750.06
2022-08-05T07:46:25.458Z,98753.22
2022-08-05T07:49:02.440Z,98749.06
2022-08-05T07:51:37.044Z,98757.44
2022-08-05T07:54:08.305Z,98754.56
2022-08-05T07:57:01.343Z,98756.59
2022-08-05T07:59:38.052Z,98760.34
2022-08-05T08:02:15.502Z,98769.03
2022-08-05T08:04:46.709Z,98762.66
2022-08-05T08:07:15.374Z,98755.13
2022-08-05T08:09:43.722Z,98746.69
2022-08-05T08:12:35.014Z,98747.75
2022-08-05T08:15:03.655Z,98736.91
2022-08-05T08:17:32.940Z,98738.78
2022-08-05T08:20:44.402Z,98742.13
2022-08-05T08:22:53.419Z,98729.66
2022-08-05T08:25:26.732Z,98728.16
2022-08-05T08:28:18.185Z,98730.44
2022-08-05T08:30:49.653Z,98730.53
2022-08-05T08:33:17.813Z,98722.66
2022-08-05T08:35:52.982Z,98723.69
2022-08-05T08:38:35.309Z,98711.59
2022-08-05T08:41:06.733Z,98702.81
2022-08-05T08:45:17.743Z,98704.22
2022-08-05T08:46:28.441Z,98692.81
2022-08-05T08:49:06.402Z,98688.91
2022-08-05T08:52:03.069Z,98694.16
2022-08-05T08:54:36.460Z,98692.69
2022-08-05T08:57:11.290Z,98683.28
2022-08-05T08:59:41.854Z,98688.94
2022-08-05T09:02:19.096Z,98682.75
2022-08-05T09:05:16.482Z,98671.69
2022-08-05T09:07:39.776Z,98664.13
2022-08-05T09:10:27.121Z,98660.88
2022-08-05T09:13:04.735Z,98656.81
2022-08-05T09:15:36.829Z,98661.69
2022-08-05T09:18:09.156Z,98665.06
2022-08-05T09:20:38.414Z,98657.34
2022-08-05T09:23:18.875Z,98660.16
2022-08-05T09:26:01.630Z,98647.97
2022-08-05T09:28:34.213Z,98646.78
2022-08-05T09:31:18.198Z,98641.22
2022-08-05T09:33:54.850Z,98632.72
2022-08-05T09:36:27.575Z,98625.22
2022-08-05T09:39:03.019Z,98634.56
2022-08-05T09:41:32.873Z,98639.00
2022-08-05T09:44:06.210Z,98633.97
2022-08-05T09:46:35.846Z,98630.22
2022-08-05T09:49:19.047Z,98632.03
2022-08-05T09:51:49.343Z,98633.28
2022-08-05T09:54:21.423Z,98635.63
2022-08-05T09:57:01.110Z,98630.53
2022-08-05T09:59:35.067Z,98637.91
2022-08-05T10:02:05.234Z,98644.69
2022-08-05T10:04:40.989Z,98634.22
2022-08-05T10:07:19.659Z,98633.25
2022-08-05T10:10:13.806Z,98651.22
2022-08-05T10:12:49.667Z,98653.09
2022-08-05T10:15:25.750Z,98644.56
2022-08-05T10:18:11.780Z,98647.81
2022-08-05T10:20:44.617Z,98646.88
2022-08-05T10:23:34.034Z,98641.44
2022-08-05T10:26:08.428Z,98641.69
2022-08-05T10:28:42.813Z,98642.50
2022-08-05T10:32:48.155Z,98643.72
2022-08-05T10:34:01.385Z,98636.06
2022-08-05T10:36:33.944Z,98627.56
2022-08-05T10:39:10.012Z,98620.78
2022-08-05T10:41:48.244Z,98625.19
2022-08-05T10:44:20.234Z,98624.91
2022-08-05T10:46:50.859Z,98618.63
2022-08-05T10:49:26.779Z,98621.13
2022-08-05T10:52:10.343Z,98622.41
2022-08-05T10:54:56.093Z,98622.59
2022-08-05T10:57:31.800Z,98628.09
2022-08-05T11:00:19.577Z,98616.41
2022-08-05T11:03:25.119Z,98619.28
2022-08-05T11:06:05.670Z,98620.31
2022-08-05T11:08:37.885Z,98620.91
2022-08-05T11:11:44.706Z,98621.13
2022-08-05T11:14:42.909Z,98629.97
2022-08-05T11:17:56.819Z,98630.09
2022-08-05T11:20:43.714Z,98644.72
2022-08-05T11:24:05.750Z,98634.44
2022-08-05T11:26:43.187Z,98640.00
2022-08-05T11:29:38.104Z,98636.22
2022-08-05T11:32:24.621Z,98637.34
2022-08-05T11:34:54.354Z,98634.69
2022-08-05T11:38:29.527Z,98636.72
2022-08-05T11:41:34.996Z,98631.91
2022-08-05T11:44:04.725Z,98629.03
2022-08-05T11:46:37.866Z,98623.31
2022-08-05T11:49:25.666Z,98627.13
2022-08-05T11:51:54.282Z,98624.09
2022-08-05T11:54:33.737Z,98621.94
2022-08-05T11:57:07.942Z,98615.88
2022-08-05T11:59:49.782Z,98625.03
2022-08-05T12:02:29.947Z,98625.16
2022-08-05T12:05:01.060Z,98619.72
2022-08-05T12:08:09.559Z,98615.03
2022-08-05T12:10:24.894Z,98611.00
2022-08-05T12:13:15.470Z,98610.09
2022-08-05T12:15:45.142Z,98610.38
2022-08-05T12:18:20.502Z,98602.53
2022-08-05T12:20:48.496Z,98613.16
2022-08-05T12:23:17.176Z,98604.63
2022-08-05T12:25:53.454Z,98607.84
2022-08-05T12:28:39.361Z,98597.81
2022-08-05T12:31:07.373Z,98598.69
2022-08-05T12:33:37.006Z,98599.44
2022-08-05T12:36:09.138Z,98593.72
2022-08-05T12:38:39.724Z,98594.72
2022-08-05T12:41:12.870Z,98586.34
2022-08-05T12:43:54.890Z,98595.22
2022-08-05T12:46:29.386Z,98590.47
2022-08-05T12:48:59.308Z,98602.16
2022-08-05T12:52:13.116Z,98596.41
2022-08-05T12:54:26.541Z,98596.50
2022-08-05T12:56:56.248Z,98597.91
2022-08-05T12:59:27.442Z,98590.00
2022-08-05T13:02:07.615Z,98595.66
2022-08-05T13:04:41.837Z,98587.91
2022-08-05T13:07:55.973Z,98589.72
2022-08-05T13:10:12.502Z,98594.72
2022-08-05T13:12:42.599Z,98596.88
2022-08-05T13:15:24.494Z,98600.31
2022-08-05T13:18:08.457Z,98594.38
2022-08-05T13:20:40.355Z,98599.03
2022-08-05T13:23:08.614Z,98594.50
2022-08-05T13:25:51.872Z,98595.34
2022-08-05T13:28:24.203Z,98601.78
2022-08-05T13:30:54.103Z,98596.19
2022-08-05T13:34:21.228Z,98588.94
2022-08-05T13:36:09.865Z,98601.75
2022-08-05T13:38:38.536Z,98598.94
2022-08-05T13:41:10.600Z,98593.16
2022-08-05T13:43:44.437Z,98590.88
2022-08-05T13:46:16.368Z,98597.91
2022-08-05T13:48:58.127Z,98592.66
2022-08-05T13:51:40.285Z,98595.47
2022-08-05T13:54:12.971Z,98578.09
2022-08-05T13:56:44.958Z,98583.31
2022-08-05T13:59:20.245Z,98586.88
2022-08-05T14:01:57.717Z,98577.88
2022-08-05T14:04:50.211Z,98581.34
2022-08-05T14:07:26.042Z,98592.69
2022-08-05T14:10:11.659Z,98590.59
2022-08-05T14:12:40.143Z,98580.97
2022-08-05T14:16:06.852Z,98581.28
2022-08-05T14:18:01.855Z,98582.44
2022-08-05T14:20:34.810Z,98593.00
2022-08-05T14:23:02.940Z,98597.66
2022-08-05T14:25:30.858Z,98590.59
2022-08-05T14:27:58.880Z,98585.34
2022-08-05T14:30:28.101Z,98586.00
2022-08-05T14:32:57.053Z,98588.28
2022-08-05T14:35:36.207Z,98583.00
2022-08-05T14:38:32.655Z,98591.88
2022-08-05T14:41:06.935Z,98588.69
2022-08-05T14:43:51.605Z,98604.13
2022-08-05T14:46:28.238Z,98591.94
2022-08-05T14:48:57.769Z,98609.94
2022-08-05T14:51:31.067Z,98616.91
2022-08-05T14:54:06.662Z,98619.31
2022-08-05T14:56:47.266Z,98618.59
2022-08-05T14:59:15.493Z,98622.00
2022-08-05T15:01:48.871Z,98621.00
2022-08-05T15:04:17.646Z,98625.63
2022-08-05T15:06:51.329Z,98623.81
2022-08-05T15:09:52.562Z,98615.31
2022-08-05T15:12:09.110Z,98612.94
2022-08-05T15:14:42.216Z,98607.31
2022-08-05T15:17:46.984Z,98614.53
2022-08-05T15:20:08.129Z,98630.97
2022-08-05T15:22:39.242Z,98647.88
2022-08-05T15:25:13.706Z,98639.16
2022-08-05T15:27:43.086Z,98640.47
2022-08-05T15:30:20.709Z,98638.84
2022-08-05T15:32:50.369Z,98626.53
2022-08-05T15:35:18.235Z,98639.53
2022-08-05T15:38:33.389Z,98648.13
2022-08-05T15:41:00.214Z,98654.50
2022-08-05T15:43:27.062Z,98651.78
2022-08-05T15:46:00.704Z,98657.63
2022-08-05T15:48:29.995Z,98656.63
2022-08-05T15:51:01.050Z,98657.47
2022-08-05T15:53:38.389Z,98660.94
2022-08-05T15:56:18.557Z,98661.22
2022-08-05T15:58:47.370Z,98665.91
2022-08-05T16:01:17.415Z,98676.25
2022-08-05T16:03:48.557Z,98669.75
2022-08-05T16:06:20.254Z,98678.81
2022-08-05T16:08:50.982Z,98677.88
2022-08-05T16:11:20.882Z,98675.75
2022-08-05T16:14:07.356Z,98677.75
2022-08-05T16:16:36.908Z,98680.75
2022-08-05T16:19:05.717Z,98674.56
2022-08-05T16:22:00.484Z,98672.19
2022-08-05T16:24:41.118Z,98674.56
2022-08-05T16:27:16.319Z,98676.78
2022-08-05T16:29:50.195Z,98684.44
2022-08-05T16:32:28.829Z,98682.94
2022-08-05T16:34:57.726Z,98687.59
2022-08-05T16:38:16.198Z,98687.53
2022-08-05T16:40:26.651Z,98693.13
2022-08-05T16:42:57.241Z,98706.97
2022-08-05T16:46:07.350Z,98710.38
2022-08-05T16:48:25.471Z,98706.03
2022-08-05T16:50:56.927Z,98717.38
2022-08-05T16:53:32.202Z,98719.00
2022-08-05T16:56:02.128Z,98702.50
2022-08-05T16:58:30.165Z,98707.81
2022-08-05T17:00:58.089Z,98713.03
2022-08-05T17:03:27.210Z,98717.88
2022-08-05T17:05:59.448Z,98725.22
2022-08-05T17:08:33.629Z,98717.41
2022-08-05T17:11:17.453Z,98714.44
2022-08-05T17:13:45.618Z,98721.78
2022-08-05T17:16:29.763Z,98716.88
2022-08-05T17:19:01.621Z,98706.94
2022-08-05T17:21:35.392Z,98695.06
2022-08-05T17:24:19.735Z,98702.59
2022-08-05T17:26:54.301Z,98715.84
2022-08-05T17:29:39.907Z,98727.22
2022-08-05T17:32:11.664Z,98740.44
2022-08-05T17:34:47.683Z,98751.84
2022-08-05T17:37:41.700Z,98747.16
2022-08-05T17:40:10.119Z,98750.56
2022-08-05T17:42:43.207Z,98748.13
2022-08-05T17:45:20.566Z,98762.19
2022-08-05T17:47:53.962Z,98766.75
2022-08-05T17:50:28.587Z,98778.53
2022-08-05T17:52:58.780Z,98763.41
2022-08-05T17:55:34.253Z,98785.47
2022-08-05T17:58:11.202Z,98780.88
2022-08-05T18:00:45.354Z,98789.06
2022-08-05T18:03:39.273Z,98790.59
2022-08-05T18:06:06.320Z,98790.47
2022-08-05T18:08:44.126Z,98789.97
2022-08-05T18:11:24.165Z,98798.38
2022-08-05T18:14:06.581Z,98793.06
2022-08-05T18:16:35.292Z,98797.16
2022-08-05T18:19:22.668Z,98802.91
2022-08-05T18:22:07.192Z,98808.31
2022-08-05T18:24:37.730Z,98818.53
2022-08-05T18:27:18.573Z,98823.69
2022-08-05T18:29:54.122Z,98824.94
2022-08-05T18:32:28.107Z,98825.19
2022-08-05T18:34:57.501Z,98829.34
2022-08-05T18:37:34.826Z,98832.78
2022-08-05T18:40:31.611Z,98854.16
2022-08-05T18:42:57.875Z,98850.94
2022-08-05T18:45:41.333Z,98863.34
2022-08-05T18:48:11.124Z,98868.81
2022-08-05T18:50:57.200Z,98869.19
2022-08-05T18:53:32.178Z,98878.84
2022-08-05T18:56:02.645Z,98879.66
2022-08-05T18:58:40.467Z,98889.47
2022-08-05T19:01:18.134Z,98903.28
2022-08-05T19:03:55.237Z,98901.66
2022-08-05T19:06:37.090Z,98903.59
2022-08-05T19:09:12.379Z,98904.66
2022-08-05T19:12:00.409Z,98909.75
2022-08-05T19:14:37.995Z,98918.78
2022-08-05T19:17:17.762Z,98921.78
2022-08-05T19:19:48.637Z,98919.53
2022-08-05T19:22:17.778Z,98935.59
2022-08-05T19:24:54.147Z,98941.84
2022-08-05T19:27:24.444Z,98933.66
2022-08-05T19:29:58.255Z,98932.28
2022-08-05T19:32:27.903Z,98927.53
2022-08-05T19:34:56.073Z,98942.19
2022-08-05T19:37:29.906Z,98978.25
2022-08-05T19:40:12.708Z,99014.00
2022-08-05T19:42:43.098Z,98983.22
2022-08-05T19:45:33.279Z,98948.13
2022-08-05T19:48:06.306Z,98977.59
2022-08-05T19:50:34.915Z,98988.19
2022-08-05T19:53:09.307Z,98989.56
2022-08-05T19:56:15.704Z,98995.41
2022-08-05T19:58:29.455Z,98996.25
2022-08-05T20:00:58.188Z,98987.28
2022-08-05T20:03:38.743Z,98992.94
2022-08-05T20:06:11.786Z,99023.31
2022-08-05T20:08:47.417Z,99022.28
2022-08-05T20:11:18.061Z,99004.03
2022-08-05T20:13:58.475Z,99013.59
2022-08-05T20:16:35.158Z,99012.16
2022-08-05T20:19:05.126Z,99007.88
2022-08-05T20:21:33.276Z,99014.44
2022-08-05T20:24:01.092Z,99019.28
2022-08-05T20:26:29.447Z,99024.19
2022-08-05T20:29:00.661Z,99037.28
2022-08-05T20:31:42.134Z,99040.38
2022-08-05T20:34:18.758Z,99028.16
2022-08-05T20:36:47.844Z,99029.81
2022-08-05T20:39:16.493Z,99032.38
2022-08-05T20:41:45.253Z,99036.59
2022-08-05T20:44:18.601Z,99045.00
2022-08-05T20:46:57.752Z,99047.00
2022-08-05T20:49:27.207Z,99049.75
2022-08-05T20:51:55.943Z,99057.91
2022-08-05T20:54:43.377Z,99051.94
2022-08-05T20:57:15.025Z,99061.16
2022-08-05T21:00:19.590Z,99068.72
2022-08-05T21:02:53.138Z,99074.34
2022-08-05T21:05:22.549Z,99067.84
2022-08-05T21:07:51.659Z,99069.34
2022-08-05T21:10:20.159Z,99073.19
2022-08-05T21:12:58.142Z,99076.59
2022-08-05T21:15:37.041Z,99079.22
2022-08-05T21:18:05.185Z,99075.63
2022-08-05T21:20:34.400Z,99085.53
2022-08-05T21:23:03.085Z,99076.06
2022-08-05T21:25:33.998Z,99084.34
2022-08-05T21:28:02.708Z,99094.44
2022-08-05T21:30:31.361Z,99097.16
2022-08-05T21:32:59.739Z,99109.16
2022-08-05T21:35:43.718Z,99110.22
2022-08-05T21:38:19.129Z,99115.44
2022-08-05T21:40:46.997Z,99114.31
2022-08-05T21:43:17.683Z,99126.09
2022-08-05T21:45:57.561Z,99128.00
2022-08-05T21:48:28.956Z,99133.22
2022-08-05T21:50:59.772Z,99145.78
2022-08-05T21:53:28.945Z,99144.41
2022-08-05T21:56:05.263Z,99143.22
2022-08-05T21:58:42.282Z,99141.59
2022-08-05T22:01:10.940Z,99135.91
2022-08-05T22:03:53.100Z,99133.88
2022-08-05T22:06:39.461Z,99143.72
2022-08-05T22:09:13.955Z,99145.88
2022-08-05T22:11:43.580Z,99139.16
2022-08-05T22:14:33.746Z,99155.38
2022-08-05T22:17:06.601Z,99151.84
2022-08-05T22:20:00.250Z,99157.03
2022-08-05T22:22:28.271Z,99169.84
2022-08-05T22:25:21.715Z,99169.00
2022-08-05T22:28:09.384Z,99174.53
2022-08-05T22:30:44.007Z,99180.59
2022-08-05T22:33:56.995Z,99176.19
2022-08-05T22:36:09.556Z,99185.78
2022-08-05T22:38:38.367Z,99187.72
2022-08-05T22:41:11.922Z,99189.53
2022-08-05T22:43:42.913Z,99192.16
2022-08-05T22:46:13.149Z,99208.94
2022-08-05T22:48:41.755Z,99213.25
2022-08-05T22:51:16.132Z,99219.50
2022-08-05T22:53:54.934Z,99218.69
2022-08-05T22:56:30.732Z,99219.66
2022-08-05T22:59:03.128Z,99224.63
2022-08-05T23:02:03.887Z,99233.88
2022-08-05T23:04:20.602Z,99237.22
2022-08-05T23:06:48.346Z,99234.44
2022-08-05T23:09:52.864Z,99241.16
2022-08-05T23:12:06.194Z,99248.09
2022-08-05T23:14:33.997Z,99253.97
2022-08-05T23:17:34.918Z,99257.22
2022-08-05T23:20:10.169Z,99258.16
2022-08-05T23:22:47.675Z,99271.34
2022-08-05T23:25:51.905Z,99264.97
2022-08-05T23:28:07.675Z,99258.38
2022-08-05T23:30:40.499Z,99261.84
2022-08-05T23:33:16.067Z,99260.41
2022-08-05T23:35:50.385Z,99260.31
2022-08-05T23:38:19.305Z,99264.53
2022-08-05T23:40:49.371Z,99268.44
2022-08-05T23:43:25.387Z,99280.72
2022-08-05T23:46:21.025Z,99272.97
2022-08-05T23:48:59.817Z,99270.34
2022-08-05T23:51:53.385Z,99274.84
2022-08-05T23:54:25.673Z,99291.94
2022-08-05T23:56:55.937Z,99286.00
